sensor_id;sensor_type;location;lat;lon;timestamp;pressure;altitude;pressure_sealevel;temperature;humidity
6144;BME280;3103;49.492;8.474;2023-04-26T00:01:57;100657.00;;;9.05;55.24
6144;BME280;3103;49.492;8.474;2023-04-26T00:04:24;100663.91;;;8.95;55.20
6144;BME280;3103;49.492;8.474;2023-04-26T00:06:51;100665.63;;;8.89;55.63
6144;BME280;3103;49.492;8.474;2023-04-26T00:09:18;100666.81;;;8.93;55.89
6144;BME280;3103;49.492;8.474;2023-04-26T00:11:45;100667.94;;;9.04;55.62
6144;BME280;3103;49.492;8.474;2023-04-26T00:14:12;100661.75;;;9.03;56.11
6144;BME280;3103;49.492;8.474;2023-04-26T00:16:39;100667.03;;;9.10;56.12
6144;BME280;3103;49.492;8.474;2023-04-26T00:19:06;100661.50;;;8.86;55.98
6144;BME280;3103;49.492;8.474;2023-04-26T00:21:32;100663.19;;;8.87;57.03
6144;BME280;3103;49.492;8.474;2023-04-26T00:23:59;100667.41;;;8.77;56.69
6144;BME280;3103;49.492;8.474;2023-04-26T00:26:26;100667.53;;;9.00;56.14
6144;BME280;3103;49.492;8.474;2023-04-26T00:28:53;100669.50;;;8.75;56.74
6144;BME280;3103;49.492;8.474;2023-04-26T00:31:20;100660.78;;;8.79;56.56
6144;BME280;3103;49.492;8.474;2023-04-26T00:33:47;100670.94;;;8.52;57.51
6144;BME280;3103;49.492;8.474;2023-04-26T00:36:14;100661.06;;;8.71;57.36
6144;BME280;3103;49.492;8.474;2023-04-26T00:38:45;100660.63;;;8.74;56.80
6144;BME280;3103;49.492;8.474;2023-04-26T00:41:12;100658.56;;;8.76;56.93
6144;BME280;3103;49.492;8.474;2023-04-26T00:43:40;100665.47;;;8.84;57.45
6144;BME280;3103;49.492;8.474;2023-04-26T00:46:10;100666.06;;;8.86;57.07
6144;BME280;3103;49.492;8.474;2023-04-26T00:48:36;100666.44;;;8.89;56.59
6144;BME280;3103;49.492;8.474;2023-04-26T00:51:04;100659.66;;;8.69;56.81
6144;BME280;3103;49.492;8.474;2023-04-26T00:53:32;100673.84;;;8.69;57.10
6144;BME280;3103;49.492;8.474;2023-04-26T00:56:02;100672.69;;;8.83;56.76
6144;BME280;3103;49.492;8.474;2023-04-26T00:58:32;100673.69;;;8.46;57.31
6144;BME280;3103;49.492;8.474;2023-04-26T01:00:59;100666.34;;;8.35;57.75
6144;BME280;3103;49.492;8.474;2023-04-26T01:03:26;100668.53;;;8.44;57.44
6144;BME280;3103;49.492;8.474;2023-04-26T01:05:53;100669.19;;;8.40;58.06
6144;BME280;3103;49.492;8.474;2023-04-26T01:08:22;100672.19;;;8.50;57.60
6144;BME280;3103;49.492;8.474;2023-04-26T01:10:49;100674.06;;;8.68;56.86
6144;BME280;3103;49.492;8.474;2023-04-26T01:13:16;100673.56;;;8.59;56.94
6144;BME280;3103;49.492;8.474;2023-04-26T01:15:47;100667.38;;;8.33;57.70
6144;BME280;3103;49.492;8.474;2023-04-26T01:18:14;100667.19;;;8.28;57.92
6144;BME280;3103;49.492;8.474;2023-04-26T01:20:41;100673.56;;;8.34;58.22
6144;BME280;3103;49.492;8.474;2023-04-26T01:23:09;100670.31;;;8.25;58.20
6144;BME280;3103;49.492;8.474;2023-04-26T01:25:38;100671.91;;;8.33;57.73
6144;BME280;3103;49.492;8.474;2023-04-26T01:28:04;100667.38;;;8.33;58.29
6144;BME280;3103;49.492;8.474;2023-04-26T01:30:31;100671.41;;;8.43;57.60
6144;BME280;3103;49.492;8.474;2023-04-26T01:33:02;100670.22;;;8.39;58.47
6144;BME280;3103;49.492;8.474;2023-04-26T01:35:29;100665.78;;;8.26;58.48
6144;BME280;3103;49.492;8.474;2023-04-26T01:37:55;100660.25;;;8.21;59.20
6144;BME280;3103;49.492;8.474;2023-04-26T01:40:22;100658.78;;;8.25;58.49
6144;BME280;3103;49.492;8.474;2023-04-26T01:42:49;100662.13;;;8.20;58.86
6144;BME280;3103;49.492;8.474;2023-04-26T01:45:16;100663.75;;;8.21;59.00
6144;BME280;3103;49.492;8.474;2023-04-26T01:48:01;100660.47;;;8.19;58.71
6144;BME280;3103;49.492;8.474;2023-04-26T01:50:31;100663.47;;;8.04;59.73
6144;BME280;3103;49.492;8.474;2023-04-26T01:52:57;100660.91;;;8.16;59.36
6144;BME280;3103;49.492;8.474;2023-04-26T01:55:24;100660.28;;;8.14;59.08
6144;BME280;3103;49.492;8.474;2023-04-26T01:57:51;100668.03;;;7.97;59.97
6144;BME280;3103;49.492;8.474;2023-04-26T02:00:18;100664.00;;;7.88;59.89
6144;BME280;3103;49.492;8.474;2023-04-26T02:02:48;100658.81;;;7.93;59.69
6144;BME280;3103;49.492;8.474;2023-04-26T02:05:15;100655.69;;;7.96;59.93
6144;BME280;3103;49.492;8.474;2023-04-26T02:07:42;100664.69;;;7.77;60.33
6144;BME280;3103;49.492;8.474;2023-04-26T02:10:08;100667.00;;;7.98;60.17
6144;BME280;3103;49.492;8.474;2023-04-26T02:12:35;100665.00;;;7.87;61.14
6144;BME280;3103;49.492;8.474;2023-04-26T02:15:03;100667.38;;;7.77;60.91
6144;BME280;3103;49.492;8.474;2023-04-26T02:17:33;100659.97;;;7.72;60.88
6144;BME280;3103;49.492;8.474;2023-04-26T02:20:00;100664.03;;;7.82;61.52
6144;BME280;3103;49.492;8.474;2023-04-26T02:22:31;100665.09;;;7.74;61.59
6144;BME280;3103;49.492;8.474;2023-04-26T02:24:58;100665.75;;;7.69;61.84
6144;BME280;3103;49.492;8.474;2023-04-26T02:27:31;100662.75;;;7.91;61.23
6144;BME280;3103;49.492;8.474;2023-04-26T02:30:00;100659.47;;;7.89;61.70
6144;BME280;3103;49.492;8.474;2023-04-26T02:32:30;100662.72;;;7.59;63.21
6144;BME280;3103;49.492;8.474;2023-04-26T02:34:57;100666.94;;;7.73;62.73
6144;BME280;3103;49.492;8.474;2023-04-26T02:37:24;100653.63;;;7.67;62.96
6144;BME280;3103;49.492;8.474;2023-04-26T02:39:51;100669.50;;;7.62;63.19
6144;BME280;3103;49.492;8.474;2023-04-26T02:42:18;100663.28;;;7.74;62.25
6144;BME280;3103;49.492;8.474;2023-04-26T02:44:45;100664.47;;;7.79;62.75
6144;BME280;3103;49.492;8.474;2023-04-26T02:47:12;100661.88;;;7.65;63.09
6144;BME280;3103;49.492;8.474;2023-04-26T02:49:39;100661.00;;;7.71;62.63
6144;BME280;3103;49.492;8.474;2023-04-26T02:52:06;100659.88;;;7.86;62.07
6144;BME280;3103;49.492;8.474;2023-04-26T02:54:33;100662.53;;;7.54;63.23
6144;BME280;3103;49.492;8.474;2023-04-26T02:57:00;100660.97;;;7.47;63.49
6144;BME280;3103;49.492;8.474;2023-04-26T02:59:27;100662.97;;;7.51;63.36
6144;BME280;3103;49.492;8.474;2023-04-26T03:01:54;100663.38;;;7.55;63.53
6144;BME280;3103;49.492;8.474;2023-04-26T03:04:22;100664.63;;;7.45;63.52
6144;BME280;3103;49.492;8.474;2023-04-26T03:06:49;100663.63;;;7.47;63.69
6144;BME280;3103;49.492;8.474;2023-04-26T03:09:15;100666.25;;;7.53;63.18
6144;BME280;3103;49.492;8.474;2023-04-26T03:11:43;100666.34;;;7.33;64.60
6144;BME280;3103;49.492;8.474;2023-04-26T03:14:09;100666.00;;;7.17;64.96
6144;BME280;3103;49.492;8.474;2023-04-26T03:16:40;100663.78;;;7.52;63.37
6144;BME280;3103;49.492;8.474;2023-04-26T03:19:08;100668.06;;;7.21;64.25
6144;BME280;3103;49.492;8.474;2023-04-26T03:21:37;100674.72;;;7.50;63.50
6144;BME280;3103;49.492;8.474;2023-04-26T03:24:04;100665.47;;;7.46;64.02
6144;BME280;3103;49.492;8.474;2023-04-26T03:26:32;100664.00;;;7.50;63.97
6144;BME280;3103;49.492;8.474;2023-04-26T03:28:58;100665.06;;;7.49;63.35
6144;BME280;3103;49.492;8.474;2023-04-26T03:31:25;100667.34;;;7.39;64.50
6144;BME280;3103;49.492;8.474;2023-04-26T03:33:52;100670.41;;;7.42;65.04
6144;BME280;3103;49.492;8.474;2023-04-26T03:36:19;100671.88;;;7.32;65.59
6144;BME280;3103;49.492;8.474;2023-04-26T03:38:46;100673.56;;;7.33;65.56
6144;BME280;3103;49.492;8.474;2023-04-26T03:41:15;100676.25;;;7.26;66.09
6144;BME280;3103;49.492;8.474;2023-04-26T03:43:42;100670.56;;;7.09;66.30
6144;BME280;3103;49.492;8.474;2023-04-26T03:46:08;100679.53;;;7.28;66.11
6144;BME280;3103;49.492;8.474;2023-04-26T03:48:35;100672.16;;;7.24;65.89
6144;BME280;3103;49.492;8.474;2023-04-26T03:51:04;100679.22;;;7.05;66.26
6144;BME280;3103;49.492;8.474;2023-04-26T03:53:34;100676.94;;;7.08;66.45
6144;BME280;3103;49.492;8.474;2023-04-26T03:56:01;100681.41;;;7.21;65.69
6144;BME280;3103;49.492;8.474;2023-04-26T03:58:29;100671.19;;;6.98;66.18
6144;BME280;3103;49.492;8.474;2023-04-26T04:00:56;100673.88;;;7.05;65.75
6144;BME280;3103;49.492;8.474;2023-04-26T04:03:24;100668.09;;;7.01;66.05
6144;BME280;3103;49.492;8.474;2023-04-26T04:05:51;100661.16;;;6.94;65.81
6144;BME280;3103;49.492;8.474;2023-04-26T04:08:17;100665.00;;;7.11;65.83
6144;BME280;3103;49.492;8.474;2023-04-26T04:10:44;100661.16;;;6.94;66.21
6144;BME280;3103;49.492;8.474;2023-04-26T04:13:11;100663.63;;;6.89;66.97
6144;BME280;3103;49.492;8.474;2023-04-26T04:15:37;100668.13;;;6.95;66.46
6144;BME280;3103;49.492;8.474;2023-04-26T04:18:05;100661.16;;;6.87;66.93
6144;BME280;3103;49.492;8.474;2023-04-26T04:20:31;100669.38;;;6.85;66.33
6144;BME280;3103;49.492;8.474;2023-04-26T04:22:59;100668.97;;;6.75;67.23
6144;BME280;3103;49.492;8.474;2023-04-26T04:25:27;100671.66;;;6.82;66.97
6144;BME280;3103;49.492;8.474;2023-04-26T04:27:57;100666.53;;;6.80;67.02
6144;BME280;3103;49.492;8.474;2023-04-26T04:30:25;100672.22;;;6.97;67.02
6144;BME280;3103;49.492;8.474;2023-04-26T04:32:52;100673.22;;;7.03;66.71
6144;BME280;3103;49.492;8.474;2023-04-26T04:35:19;100673.44;;;7.01;67.54
6144;BME280;3103;49.492;8.474;2023-04-26T04:37:46;100680.84;;;7.06;67.14
6144;BME280;3103;49.492;8.474;2023-04-26T04:40:15;100682.53;;;6.94;67.35
6144;BME280;3103;49.492;8.474;2023-04-26T04:42:45;100688.03;;;7.05;66.34
6144;BME280;3103;49.492;8.474;2023-04-26T04:45:14;100685.63;;;6.84;66.90
6144;BME280;3103;49.492;8.474;2023-04-26T04:47:41;100688.94;;;6.79;66.72
6144;BME280;3103;49.492;8.474;2023-04-26T04:50:09;100691.38;;;6.81;66.70
6144;BME280;3103;49.492;8.474;2023-04-26T04:52:36;100699.59;;;6.79;67.10
6144;BME280;3103;49.492;8.474;2023-04-26T04:55:03;100702.66;;;6.96;66.80
6144;BME280;3103;49.492;8.474;2023-04-26T04:57:31;100703.84;;;7.13;66.10
6144;BME280;3103;49.492;8.474;2023-04-26T04:59:58;100705.69;;;7.20;66.21
6144;BME280;3103;49.492;8.474;2023-04-26T05:02:30;100709.94;;;7.27;65.60
6144;BME280;3103;49.492;8.474;2023-04-26T05:04:58;100715.59;;;6.99;66.97
6144;BME280;3103;49.492;8.474;2023-04-26T05:07:24;100711.38;;;7.30;66.23
6144;BME280;3103;49.492;8.474;2023-04-26T05:09:54;100709.34;;;7.25;66.11
6144;BME280;3103;49.492;8.474;2023-04-26T05:12:21;100708.50;;;7.31;66.55
6144;BME280;3103;49.492;8.474;2023-04-26T05:14:49;100708.72;;;7.30;66.60
6144;BME280;3103;49.492;8.474;2023-04-26T05:17:16;100720.03;;;7.25;66.07
6144;BME280;3103;49.492;8.474;2023-04-26T05:19:44;100717.38;;;7.25;66.35
6144;BME280;3103;49.492;8.474;2023-04-26T05:22:11;100715.91;;;7.36;66.11
6144;BME280;3103;49.492;8.474;2023-04-26T05:24:45;100721.75;;;7.64;64.70
6144;BME280;3103;49.492;8.474;2023-04-26T05:27:13;100721.69;;;7.78;64.21
6144;BME280;3103;49.492;8.474;2023-04-26T05:29:47;100725.72;;;7.93;63.97
6144;BME280;3103;49.492;8.474;2023-04-26T05:32:37;100723.69;;;7.89;64.04
6144;BME280;3103;49.492;8.474;2023-04-26T05:35:17;100729.63;;;7.91;64.55
6144;BME280;3103;49.492;8.474;2023-04-26T05:37:44;100722.88;;;7.88;64.76
6144;BME280;3103;49.492;8.474;2023-04-26T05:40:12;100732.47;;;7.96;64.59
6144;BME280;3103;49.492;8.474;2023-04-26T05:42:39;100723.56;;;8.02;64.81
6144;BME280;3103;49.492;8.474;2023-04-26T05:45:07;100726.47;;;8.32;63.40
6144;BME280;3103;49.492;8.474;2023-04-26T05:47:35;100741.22;;;8.48;62.74
6144;BME280;3103;49.492;8.474;2023-04-26T05:50:03;100739.81;;;8.45;63.15
6144;BME280;3103;49.492;8.474;2023-04-26T05:52:31;100736.97;;;8.33;62.71
6144;BME280;3103;49.492;8.474;2023-04-26T05:54:58;100736.81;;;8.60;61.75
6144;BME280;3103;49.492;8.474;2023-04-26T05:57:25;100734.81;;;8.49;62.37
6144;BME280;3103;49.492;8.474;2023-04-26T05:59:52;100747.41;;;8.48;63.09
6144;BME280;3103;49.492;8.474;2023-04-26T06:02:19;100748.03;;;8.69;61.44
6144;BME280;3103;49.492;8.474;2023-04-26T06:04:46;100746.19;;;8.69;61.09
6144;BME280;3103;49.492;8.474;2023-04-26T06:07:15;100746.84;;;8.89;61.42
6144;BME280;3103;49.492;8.474;2023-04-26T06:09:46;100756.00;;;9.00;60.59
6144;BME280;3103;49.492;8.474;2023-04-26T06:12:13;100747.00;;;9.13;60.01
6144;BME280;3103;49.492;8.474;2023-04-26T06:14:43;100757.56;;;8.89;60.70
6144;BME280;3103;49.492;8.474;2023-04-26T06:17:14;100759.69;;;9.24;59.79
6144;BME280;3103;49.492;8.474;2023-04-26T06:19:41;100765.75;;;8.95;60.53
6144;BME280;3103;49.492;8.474;2023-04-26T06:22:08;100764.19;;;8.62;60.93
6144;BME280;3103;49.492;8.474;2023-04-26T06:24:35;100767.66;;;9.49;59.00
6144;BME280;3103;49.492;8.474;2023-04-26T06:27:02;100759.31;;;9.20;59.16
6144;BME280;3103;49.492;8.474;2023-04-26T06:29:31;100767.28;;;9.45;59.28
6144;BME280;3103;49.492;8.474;2023-04-26T06:31:58;100772.03;;;9.62;58.17
6144;BME280;3103;49.492;8.474;2023-04-26T06:34:25;100759.91;;;9.41;58.30
6144;BME280;3103;49.492;8.474;2023-04-26T06:36:52;100766.16;;;9.35;58.81
6144;BME280;3103;49.492;8.474;2023-04-26T06:39:21;100762.66;;;9.52;58.33
6144;BME280;3103;49.492;8.474;2023-04-26T06:41:48;100761.47;;;9.48;58.05
6144;BME280;3103;49.492;8.474;2023-04-26T06:44:25;100765.94;;;9.73;57.44
6144;BME280;3103;49.492;8.474;2023-04-26T06:47:00;100754.31;;;9.61;57.10
6144;BME280;3103;49.492;8.474;2023-04-26T06:49:27;100760.81;;;9.83;55.89
6144;BME280;3103;49.492;8.474;2023-04-26T06:51:53;100755.16;;;9.91;55.91
6144;BME280;3103;49.492;8.474;2023-04-26T06:54:20;100754.16;;;10.04;55.97
6144;BME280;3103;49.492;8.474;2023-04-26T06:56:47;100756.06;;;10.15;55.04
6144;BME280;3103;49.492;8.474;2023-04-26T06:59:14;100756.06;;;10.45;53.78
6144;BME280;3103;49.492;8.474;2023-04-26T07:01:40;100756.91;;;10.57;53.52
6144;BME280;3103;49.492;8.474;2023-04-26T07:04:07;100761.38;;;10.87;52.24
6144;BME280;3103;49.492;8.474;2023-04-26T07:06:37;100757.47;;;10.48;52.96
6144;BME280;3103;49.492;8.474;2023-04-26T07:09:04;100760.66;;;11.03;52.50
6144;BME280;3103;49.492;8.474;2023-04-26T07:11:31;100755.84;;;10.82;52.48
6144;BME280;3103;49.492;8.474;2023-04-26T07:13:57;100757.25;;;11.19;51.78
6144;BME280;3103;49.492;8.474;2023-04-26T07:16:25;100756.31;;;10.79;52.07
6144;BME280;3103;49.492;8.474;2023-04-26T07:18:53;100756.28;;;10.55;53.22
6144;BME280;3103;49.492;8.474;2023-04-26T07:21:23;100760.53;;;10.75;52.16
6144;BME280;3103;49.492;8.474;2023-04-26T07:23:57;100759.84;;;11.03;51.25
6144;BME280;3103;49.492;8.474;2023-04-26T07:26:24;100754.13;;;10.87;52.49
6144;BME280;3103;49.492;8.474;2023-04-26T07:28:55;100761.38;;;10.87;52.56
6144;BME280;3103;49.492;8.474;2023-04-26T07:31:22;100757.16;;;10.91;50.87
6144;BME280;3103;49.492;8.474;2023-04-26T07:33:48;100755.03;;;10.81;51.22
6144;BME280;3103;49.492;8.474;2023-04-26T07:36:15;100752.47;;;10.75;51.54
6144;BME280;3103;49.492;8.474;2023-04-26T07:38:42;100752.47;;;10.75;51.63
6144;BME280;3103;49.492;8.474;2023-04-26T07:41:09;100755.28;;;11.03;50.69
6144;BME280;3103;49.492;8.474;2023-04-26T07:43:36;100758.69;;;10.87;50.92
6144;BME280;3103;49.492;8.474;2023-04-26T07:46:03;100754.81;;;11.18;50.41
6144;BME280;3103;49.492;8.474;2023-04-26T07:48:30;100757.72;;;11.68;49.34
6144;BME280;3103;49.492;8.474;2023-04-26T07:51:06;100759.50;;;11.86;48.47
6144;BME280;3103;49.492;8.474;2023-04-26T07:53:32;100759.81;;;12.18;47.55
6144;BME280;3103;49.492;8.474;2023-04-26T07:55:59;100765.09;;;12.41;46.94
6144;BME280;3103;49.492;8.474;2023-04-26T07:58:26;100752.97;;;11.70;49.75
6144;BME280;3103;49.492;8.474;2023-04-26T08:00:52;100759.63;;;12.08;48.02
6144;BME280;3103;49.492;8.474;2023-04-26T08:03:20;100756.03;;;12.02;47.89
6144;BME280;3103;49.492;8.474;2023-04-26T08:05:47;100759.75;;;12.46;46.64
6144;BME280;3103;49.492;8.474;2023-04-26T08:08:14;100757.31;;;12.00;48.94
6144;BME280;3103;49.492;8.474;2023-04-26T08:10:44;100751.16;;;11.76;48.38
6144;BME280;3103;49.492;8.474;2023-04-26T08:13:10;100757.69;;;12.20;47.32
6144;BME280;3103;49.492;8.474;2023-04-26T08:15:37;100765.25;;;12.85;44.60
6144;BME280;3103;49.492;8.474;2023-04-26T08:18:04;100765.09;;;12.41;45.59
6144;BME280;3103;49.492;8.474;2023-04-26T08:20:31;100760.34;;;12.65;45.44
6144;BME280;3103;49.492;8.474;2023-04-26T08:22:58;100757.25;;;12.57;44.56
6144;BME280;3103;49.492;8.474;2023-04-26T08:25:25;100755.84;;;12.09;45.74
6144;BME280;3103;49.492;8.474;2023-04-26T08:27:52;100751.00;;;12.23;45.46
6144;BME280;3103;49.492;8.474;2023-04-26T08:30:19;100757.19;;;12.23;45.79
6144;BME280;3103;49.492;8.474;2023-04-26T08:32:47;100758.94;;;12.29;44.40
6144;BME280;3103;49.492;8.474;2023-04-26T08:35:14;100755.13;;;12.59;42.51
6144;BME280;3103;49.492;8.474;2023-04-26T08:37:41;100754.63;;;12.95;40.70
6144;BME280;3103;49.492;8.474;2023-04-26T08:40:08;100748.09;;;12.58;42.20
6144;BME280;3103;49.492;8.474;2023-04-26T08:42:41;100749.72;;;12.59;40.89
6144;BME280;3103;49.492;8.474;2023-04-26T08:45:10;100742.84;;;12.34;42.30
6144;BME280;3103;49.492;8.474;2023-04-26T08:47:42;100743.13;;;12.83;41.21
6144;BME280;3103;49.492;8.474;2023-04-26T08:50:12;100744.91;;;12.61;40.50
6144;BME280;3103;49.492;8.474;2023-04-26T08:52:41;100743.53;;;12.58;41.87
6144;BME280;3103;49.492;8.474;2023-04-26T08:55:08;100731.88;;;12.91;39.02
6144;BME280;3103;49.492;8.474;2023-04-26T08:57:36;100730.56;;;13.11;38.70
6144;BME280;3103;49.492;8.474;2023-04-26T09:00:04;100731.88;;;12.24;37.70
6144;BME280;3103;49.492;8.474;2023-04-26T09:02:33;100733.06;;;11.71;39.80
6144;BME280;3103;49.492;8.474;2023-04-26T09:05:00;100732.63;;;12.36;40.27
6144;BME280;3103;49.492;8.474;2023-04-26T09:07:43;100731.38;;;12.56;39.18
6144;BME280;3103;49.492;8.474;2023-04-26T09:10:13;100721.44;;;12.78;38.30
6144;BME280;3103;49.492;8.474;2023-04-26T09:12:39;100730.44;;;12.50;37.21
6144;BME280;3103;49.492;8.474;2023-04-26T09:15:07;100722.94;;;12.35;38.36
6144;BME280;3103;49.492;8.474;2023-04-26T09:17:38;100721.16;;;12.58;39.06
6144;BME280;3103;49.492;8.474;2023-04-26T09:20:24;100719.50;;;12.57;37.77
6144;BME280;3103;49.492;8.474;2023-04-26T09:23:02;100721.53;;;12.83;37.74
6144;BME280;3103;49.492;8.474;2023-04-26T09:25:30;100727.66;;;12.95;38.31
6144;BME280;3103;49.492;8.474;2023-04-26T09:27:58;100726.69;;;12.85;39.11
6144;BME280;3103;49.492;8.474;2023-04-26T09:30:25;100717.06;;;12.72;39.19
6144;BME280;3103;49.492;8.474;2023-04-26T09:32:56;100721.16;;;12.58;41.63
6144;BME280;3103;49.492;8.474;2023-04-26T09:35:34;100718.69;;;12.39;41.96
6144;BME280;3103;49.492;8.474;2023-04-26T09:38:03;100716.50;;;11.91;41.71
6144;BME280;3103;49.492;8.474;2023-04-26T09:40:40;100721.22;;;11.44;41.67
6144;BME280;3103;49.492;8.474;2023-04-26T09:43:12;100718.28;;;11.85;41.74
6144;BME280;3103;49.492;8.474;2023-04-26T09:45:54;100721.78;;;12.14;38.71
6144;BME280;3103;49.492;8.474;2023-04-26T09:48:22;100723.16;;;12.34;39.34
6144;BME280;3103;49.492;8.474;2023-04-26T09:50:52;100722.84;;;12.30;41.49
6144;BME280;3103;49.492;8.474;2023-04-26T09:53:30;100728.31;;;12.18;42.39
6144;BME280;3103;49.492;8.474;2023-04-26T09:58:56;100719.66;;;12.50;41.85
6144;BME280;3103;49.492;8.474;2023-04-26T10:01:31;100709.63;;;12.45;41.20
6144;BME280;3103;49.492;8.474;2023-04-26T10:04:00;100710.69;;;12.61;42.09
6144;BME280;3103;49.492;8.474;2023-04-26T10:06:28;100712.97;;;12.53;41.60
6144;BME280;3103;49.492;8.474;2023-04-26T10:08:55;100719.66;;;12.50;41.15
6144;BME280;3103;49.492;8.474;2023-04-26T10:11:23;100711.19;;;12.25;41.06
6144;BME280;3103;49.492;8.474;2023-04-26T10:13:51;100710.69;;;12.44;40.82
6144;BME280;3103;49.492;8.474;2023-04-26T10:16:20;100705.22;;;12.39;40.68
6144;BME280;3103;49.492;8.474;2023-04-26T10:18:47;100711.50;;;12.62;40.82
6144;BME280;3103;49.492;8.474;2023-04-26T10:21:27;100718.63;;;13.06;40.46
6144;BME280;3103;49.492;8.474;2023-04-26T10:23:55;100705.63;;;12.48;37.57
6144;BME280;3103;49.492;8.474;2023-04-26T10:26:47;100700.16;;;12.43;38.76
6144;BME280;3103;49.492;8.474;2023-04-26T10:32:20;100709.81;;;12.94;35.67
6144;BME280;3103;49.492;8.474;2023-04-26T10:35:11;100713.19;;;12.17;37.96
6144;BME280;3103;49.492;8.474;2023-04-26T10:40:34;100703.38;;;12.78;39.84
6144;BME280;3103;49.492;8.474;2023-04-26T10:45:35;100693.19;;;12.64;37.78
6144;BME280;3103;49.492;8.474;2023-04-26T10:53:31;100687.50;;;12.60;37.75
6144;BME280;3103;49.492;8.474;2023-04-26T10:55:58;100673.84;;;13.05;36.94
6144;BME280;3103;49.492;8.474;2023-04-26T10:58:32;100673.56;;;13.46;37.32
6144;BME280;3103;49.492;8.474;2023-04-26T11:03:32;100660.41;;;13.27;37.53
6144;BME280;3103;49.492;8.474;2023-04-26T11:05:59;100657.41;;;13.07;36.70
6144;BME280;3103;49.492;8.474;2023-04-26T11:08:28;100656.50;;;12.79;37.91
6144;BME280;3103;49.492;8.474;2023-04-26T11:13:39;100654.59;;;12.58;36.51
6144;BME280;3103;49.492;8.474;2023-04-26T11:16:08;100663.13;;;12.72;38.55
6144;BME280;3103;49.492;8.474;2023-04-26T11:18:37;100653.06;;;12.84;39.11
6144;BME280;3103;49.492;8.474;2023-04-26T11:21:05;100650.13;;;12.86;37.58
6144;BME280;3103;49.492;8.474;2023-04-26T11:23:33;100650.13;;;13.07;36.39
6144;BME280;3103;49.492;8.474;2023-04-26T11:26:02;100648.59;;;12.95;36.41
6144;BME280;3103;49.492;8.474;2023-04-26T11:28:31;100648.06;;;13.15;35.66
6144;BME280;3103;49.492;8.474;2023-04-26T11:31:01;100637.28;;;13.15;35.53
6144;BME280;3103;49.492;8.474;2023-04-26T11:33:30;100631.38;;;13.18;35.97
6144;BME280;3103;49.492;8.474;2023-04-26T11:35:57;100636.63;;;13.24;35.74
6144;BME280;3103;49.492;8.474;2023-04-26T11:38:25;100629.94;;;12.88;35.67
6144;BME280;3103;49.492;8.474;2023-04-26T11:41:01;100630.66;;;13.49;35.26
6144;BME280;3103;49.492;8.474;2023-04-26T11:43:38;100630.78;;;13.59;35.39
6144;BME280;3103;49.492;8.474;2023-04-26T11:46:06;100620.28;;;13.36;36.18
6144;BME280;3103;49.492;8.474;2023-04-26T11:48:35;100626.44;;;13.10;34.81
6144;BME280;3103;49.492;8.474;2023-04-26T11:51:03;100624.25;;;13.28;35.71
6144;BME280;3103;49.492;8.474;2023-04-26T11:53:40;100626.72;;;13.35;35.91
6144;BME280;3103;49.492;8.474;2023-04-26T11:56:14;100629.34;;;13.08;36.49
6144;BME280;3103;49.492;8.474;2023-04-26T11:58:47;100618.34;;;13.31;34.81
6144;BME280;3103;49.492;8.474;2023-04-26T12:03:56;100615.69;;;13.15;36.49
6144;BME280;3103;49.492;8.474;2023-04-26T12:06:43;100617.91;;;13.40;34.27
6144;BME280;3103;49.492;8.474;2023-04-26T12:09:11;100615.16;;;13.61;34.93
6144;BME280;3103;49.492;8.474;2023-04-26T12:11:38;100616.91;;;13.24;34.89
6144;BME280;3103;49.492;8.474;2023-04-26T12:14:05;100622.13;;;13.57;35.05
6144;BME280;3103;49.492;8.474;2023-04-26T12:16:35;100625.75;;;13.68;35.11
6144;BME280;3103;49.492;8.474;2023-04-26T12:19:07;100618.47;;;13.42;34.43
6144;BME280;3103;49.492;8.474;2023-04-26T12:21:41;100605.94;;;13.57;34.39
6144;BME280;3103;49.492;8.474;2023-04-26T12:24:23;100619.16;;;13.59;34.21
6144;BME280;3103;49.492;8.474;2023-04-26T12:26:51;100606.63;;;13.75;35.36
6144;BME280;3103;49.492;8.474;2023-04-26T12:29:17;100616.28;;;13.65;36.02
6144;BME280;3103;49.492;8.474;2023-04-26T12:31:45;100611.06;;;13.86;37.51
6144;BME280;3103;49.492;8.474;2023-04-26T12:34:12;100619.09;;;14.08;36.64
6144;BME280;3103;49.492;8.474;2023-04-26T12:36:39;100615.78;;;14.01;37.13
6144;BME280;3103;49.492;8.474;2023-04-26T12:39:12;100608.94;;;14.25;34.89
6144;BME280;3103;49.492;8.474;2023-04-26T12:41:41;100612.34;;;14.10;34.69
6144;BME280;3103;49.492;8.474;2023-04-26T12:44:09;100618.34;;;13.85;34.78
6144;BME280;3103;49.492;8.474;2023-04-26T12:46:36;100613.69;;;14.08;36.65
6144;BME280;3103;49.492;8.474;2023-04-26T12:49:03;100613.25;;;14.58;47.42
6144;BME280;3103;49.492;8.474;2023-04-26T12:51:30;100604.88;;;14.22;33.89
6144;BME280;3103;49.492;8.474;2023-04-26T12:53:59;100609.78;;;13.93;34.37
6144;BME280;3103;49.492;8.474;2023-04-26T12:56:28;100610.91;;;13.71;33.39
6144;BME280;3103;49.492;8.474;2023-04-26T12:58:54;100605.75;;;13.96;33.07
6144;BME280;3103;49.492;8.474;2023-04-26T13:01:21;100598.00;;;13.78;34.01
6144;BME280;3103;49.492;8.474;2023-04-26T13:03:48;100594.06;;;13.90;34.20
6144;BME280;3103;49.492;8.474;2023-04-26T13:06:15;100600.47;;;14.11;35.24
6144;BME280;3103;49.492;8.474;2023-04-26T13:08:42;100609.34;;;14.07;35.79
6144;BME280;3103;49.492;8.474;2023-04-26T13:11:09;100605.63;;;13.81;34.95
6144;BME280;3103;49.492;8.474;2023-04-26T13:13:36;100608.84;;;14.10;35.17
6144;BME280;3103;49.492;8.474;2023-04-26T13:16:10;100609.66;;;14.10;34.78
6144;BME280;3103;49.492;8.474;2023-04-26T13:18:39;100605.19;;;14.31;36.47
6144;BME280;3103;49.492;8.474;2023-04-26T13:21:05;100604.56;;;14.51;38.91
6144;BME280;3103;49.492;8.474;2023-04-26T13:23:32;100599.09;;;14.46;34.26
6144;BME280;3103;49.492;8.474;2023-04-26T13:25:59;100600.56;;;14.64;35.79
6144;BME280;3103;49.492;8.474;2023-04-26T13:28:26;100594.19;;;14.80;35.14
6144;BME280;3103;49.492;8.474;2023-04-26T13:30:52;100592.78;;;14.72;34.83
6144;BME280;3103;49.492;8.474;2023-04-26T13:33:19;100596.19;;;15.10;34.48
6144;BME280;3103;49.492;8.474;2023-04-26T13:35:47;100601.94;;;14.66;33.24
6144;BME280;3103;49.492;8.474;2023-04-26T13:38:14;100592.81;;;14.82;33.95
6144;BME280;3103;49.492;8.474;2023-04-26T13:40:42;100593.94;;;15.95;40.47
6144;BME280;3103;49.492;8.474;2023-04-26T13:43:09;100597.66;;;16.45;34.25
6144;BME280;3103;49.492;8.474;2023-04-26T13:45:36;100594.72;;;15.75;32.93
6144;BME280;3103;49.492;8.474;2023-04-26T13:48:03;100595.75;;;15.59;32.43
6144;BME280;3103;49.492;8.474;2023-04-26T13:50:30;100592.00;;;15.60;31.88